sensor_id;sensor_type;location;lat;lon;timestamp;pressure;altitude;pressure_sealevel;temperature
73673;BMP280;61972;19.480;-99.240;2023-10-19T00:00:15;77509.00;;;27.45
73673;BMP280;61972;19.480;-99.240;2023-10-19T00:02:50;77508.06;;;27.47
73673;BMP280;61972;19.480;-99.240;2023-10-19T00:05:20;77515.50;;;27.49
73673;BMP280;61972;19.480;-99.240;2023-10-19T00:07:46;77515.09;;;27.51
73673;BMP280;61972;19.480;-99.240;2023-10-19T00:10:13;77513.56;;;27.52
73673;BMP280;61972;19.480;-99.240;2023-10-19T00:12:42;77519.94;;;27.53
73673;BMP280;61972;19.480;-99.240;2023-10-19T00:15:10;77526.28;;;27.54
73673;BMP280;61972;19.480;-99.240;2023-10-19T00:17:38;77531.13;;;27.56
73673;BMP280;61972;19.480;-99.240;2023-10-19T00:20:06;77541.06;;;27.56
73673;BMP280;61972;19.480;-99.240;2023-10-19T00:23:01;77546.88;;;27.56
73673;BMP280;61972;19.480;-99.240;2023-10-19T00:25:31;77551.72;;;27.58
73673;BMP280;61972;19.480;-99.240;2023-10-19T00:28:00;77551.16;;;27.58
73673;BMP280;61972;19.480;-99.240;2023-10-19T00:30:30;77558.06;;;27.59
73673;BMP280;61972;19.480;-99.240;2023-10-19T00:32:58;77558.63;;;27.60
73673;BMP280;61972;19.480;-99.240;2023-10-19T00:35:33;77554.47;;;27.61
73673;BMP280;61972;19.480;-99.240;2023-10-19T00:38:00;77550.34;;;27.62
73673;BMP280;61972;19.480;-99.240;2023-10-19T00:40:50;77556.69;;;27.63
73673;BMP280;61972;19.480;-99.240;2023-10-19T00:43:29;77560.97;;;27.64
73673;BMP280;61972;19.480;-99.240;2023-10-19T00:46:00;77560.97;;;27.64
73673;BMP280;61972;19.480;-99.240;2023-10-19T00:48:29;77560.56;;;27.66
73673;BMP280;61972;19.480;-99.240;2023-10-19T00:50:55;77568.59;;;27.69
73673;BMP280;61972;19.480;-99.240;2023-10-19T00:53:38;77576.47;;;27.69
73673;BMP280;61972;19.480;-99.240;2023-10-19T00:56:08;77574.41;;;27.69
73673;BMP280;61972;19.480;-99.240;2023-10-19T00:58:37;77580.75;;;27.70
73673;BMP280;61972;19.480;-99.240;2023-10-19T01:01:07;77584.47;;;27.72
73673;BMP280;61972;19.480;-99.240;2023-10-19T01:03:33;77582.97;;;27.73
73673;BMP280;61972;19.480;-99.240;2023-10-19T01:06:05;77591.81;;;27.71
73673;BMP280;61972;19.480;-99.240;2023-10-19T01:08:37;77593.47;;;27.73
73673;BMP280;61972;19.480;-99.240;2023-10-19T01:11:12;77599.84;;;27.74
73673;BMP280;61972;19.480;-99.240;2023-10-19T01:13:41;77601.91;;;27.73
73673;BMP280;61972;19.480;-99.240;2023-10-19T01:16:14;77609.22;;;27.73
73673;BMP280;61972;19.480;-99.240;2023-10-19T01:18:48;77626.09;;;27.74
73673;BMP280;61972;19.480;-99.240;2023-10-19T01:21:14;77623.47;;;27.74
73673;BMP280;61972;19.480;-99.240;2023-10-19T01:23:45;77630.94;;;27.76
73673;BMP280;61972;19.480;-99.240;2023-10-19T01:26:11;77631.91;;;27.74
73673;BMP280;61972;19.480;-99.240;2023-10-19T01:28:44;77637.16;;;27.74
73673;BMP280;61972;19.480;-99.240;2023-10-19T01:31:21;77635.06;;;27.75
73673;BMP280;61972;19.480;-99.240;2023-10-19T01:33:54;77645.16;;;27.77
73673;BMP280;61972;19.480;-99.240;2023-10-19T01:36:24;77651.94;;;27.76
73673;BMP280;61972;19.480;-99.240;2023-10-19T01:38:52;77656.63;;;27.75
73673;BMP280;61972;19.480;-99.240;2023-10-19T01:41:24;77660.34;;;27.76
73673;BMP280;61972;19.480;-99.240;2023-10-19T01:43:52;77654.00;;;27.75
73673;BMP280;61972;19.480;-99.240;2023-10-19T01:46:30;77667.13;;;27.75
73673;BMP280;61972;19.480;-99.240;2023-10-19T01:49:05;77666.03;;;27.74
73673;BMP280;61972;19.480;-99.240;2023-10-19T01:51:34;77670.72;;;27.74
73673;BMP280;61972;19.480;-99.240;2023-10-19T01:54:12;77668.50;;;27.72
73673;BMP280;61972;19.480;-99.240;2023-10-19T01:56:40;77681.63;;;27.72
73673;BMP280;61972;19.480;-99.240;2023-10-19T01:59:08;77685.78;;;27.70
73673;BMP280;61972;19.480;-99.240;2023-10-19T02:01:34;77685.78;;;27.70
73673;BMP280;61972;19.480;-99.240;2023-10-19T02:04:05;77696.81;;;27.71
73673;BMP280;61972;19.480;-99.240;2023-10-19T02:06:34;77702.63;;;27.72
73673;BMP280;61972;19.480;-99.240;2023-10-19T02:09:04;77706.38;;;27.73
73673;BMP280;61972;19.480;-99.240;2023-10-19T02:11:51;77704.28;;;27.73
73673;BMP280;61972;19.480;-99.240;2023-10-19T02:14:25;77710.09;;;27.74
73673;BMP280;61972;19.480;-99.240;2023-10-19T02:16:54;77712.72;;;27.74
73673;BMP280;61972;19.480;-99.240;2023-10-19T02:19:23;77712.72;;;27.74
73673;BMP280;61972;19.480;-99.240;2023-10-19T02:21:53;77718.94;;;27.72
73673;BMP280;61972;19.480;-99.240;2023-10-19T02:24:19;77718.94;;;27.72
73673;BMP280;61972;19.480;-99.240;2023-10-19T02:26:47;77713.13;;;27.72
73673;BMP280;61972;19.480;-99.240;2023-10-19T02:29:13;77723.06;;;27.71
73673;BMP280;61972;19.480;-99.240;2023-10-19T02:31:40;77723.63;;;27.72
73673;BMP280;61972;19.480;-99.240;2023-10-19T02:34:08;77723.63;;;27.72
73673;BMP280;61972;19.480;-99.240;2023-10-19T02:36:36;77722.53;;;27.70
73673;BMP280;61972;19.480;-99.240;2023-10-19T02:39:07;77725.16;;;27.70
73673;BMP280;61972;19.480;-99.240;2023-10-19T02:41:35;77734.13;;;27.72
73673;BMP280;61972;19.480;-99.240;2023-10-19T02:44:03;77734.69;;;27.72
73673;BMP280;61972;19.480;-99.240;2023-10-19T02:46:30;77728.50;;;27.74
73673;BMP280;61972;19.480;-99.240;2023-10-19T02:49:04;77731.13;;;27.74
73673;BMP280;61972;19.480;-99.240;2023-10-19T02:51:35;77729.03;;;27.74
73673;BMP280;61972;19.480;-99.240;2023-10-19T02:54:02;77737.47;;;27.75
73673;BMP280;61972;19.480;-99.240;2023-10-19T02:56:29;77730.13;;;27.75
73673;BMP280;61972;19.480;-99.240;2023-10-19T02:59:01;77744.94;;;27.77
73673;BMP280;61972;19.480;-99.240;2023-10-19T03:01:30;77738.16;;;27.78
73673;BMP280;61972;19.480;-99.240;2023-10-19T03:04:01;77746.59;;;27.78
73673;BMP280;61972;19.480;-99.240;2023-10-19T03:06:29;77746.59;;;27.78
73673;BMP280;61972;19.480;-99.240;2023-10-19T03:09:00;77748.25;;;27.80
73673;BMP280;61972;19.480;-99.240;2023-10-19T03:11:48;77751.84;;;27.78
73673;BMP280;61972;19.480;-99.240;2023-10-19T03:14:28;77753.91;;;27.78
73673;BMP280;61972;19.480;-99.240;2023-10-19T03:16:54;77753.22;;;27.75
73673;BMP280;61972;19.480;-99.240;2023-10-19T03:19:21;77757.91;;;27.74
73673;BMP280;61972;19.480;-99.240;2023-10-19T03:21:47;77761.50;;;27.73
73673;BMP280;61972;19.480;-99.240;2023-10-19T03:24:17;77761.50;;;27.73
73673;BMP280;61972;19.480;-99.240;2023-10-19T03:27:02;77756.78;;;27.73
73673;BMP280;61972;19.480;-99.240;2023-10-19T03:29:34;77764.13;;;27.73
73673;BMP280;61972;19.480;-99.240;2023-10-19T03:32:05;77765.63;;;27.72
73673;BMP280;61972;19.480;-99.240;2023-10-19T03:34:35;77761.34;;;27.70
73673;BMP280;61972;19.480;-99.240;2023-10-19T03:37:01;77762.88;;;27.69
73673;BMP280;61972;19.480;-99.240;2023-10-19T03:39:33;77755.94;;;27.67
73673;BMP280;61972;19.480;-99.240;2023-10-19T03:42:04;77758.03;;;27.67
73673;BMP280;61972;19.480;-99.240;2023-10-19T03:44:40;77756.34;;;27.65
73673;BMP280;61972;19.480;-99.240;2023-10-19T03:47:12;77762.56;;;27.64
73673;BMP280;61972;19.480;-99.240;2023-10-19T03:49:39;77760.31;;;27.62
73673;BMP280;61972;19.480;-99.240;2023-10-19T03:52:07;77760.31;;;27.62
73673;BMP280;61972;19.480;-99.240;2023-10-19T03:54:37;77756.59;;;27.61
73673;BMP280;61972;19.480;-99.240;2023-10-19T03:57:07;77761.31;;;27.60
73673;BMP280;61972;19.480;-99.240;2023-10-19T03:59:54;77762.44;;;27.61
73673;BMP280;61972;19.480;-99.240;2023-10-19T04:02:26;77771.81;;;27.60
73673;BMP280;61972;19.480;-99.240;2023-10-19T04:05:01;77774.97;;;27.61
73673;BMP280;61972;19.480;-99.240;2023-10-19T04:07:29;77776.50;;;27.60
73673;BMP280;61972;19.480;-99.240;2023-10-19T04:09:57;77779.69;;;27.60
73673;BMP280;61972;19.480;-99.240;2023-10-19T04:12:30;77785.88;;;27.59
73673;BMP280;61972;19.480;-99.240;2023-10-19T04:14:56;77793.59;;;27.56
73673;BMP280;61972;19.480;-99.240;2023-10-19T04:17:23;77790.41;;;27.56
73673;BMP280;61972;19.480;-99.240;2023-10-19T04:19:52;77778.25;;;27.54
73673;BMP280;61972;19.480;-99.240;2023-10-19T04:22:20;77777.13;;;27.53
73673;BMP280;61972;19.480;-99.240;2023-10-19T04:24:50;77780.75;;;27.51
73673;BMP280;61972;19.480;-99.240;2023-10-19T04:27:16;77789.56;;;27.50
73673;BMP280;61972;19.480;-99.240;2023-10-19T04:29:43;77784.88;;;27.50
73673;BMP280;61972;19.480;-99.240;2023-10-19T04:32:11;77783.59;;;27.47
73673;BMP280;61972;19.480;-99.240;2023-10-19T04:34:40;77783.59;;;27.47
73673;BMP280;61972;19.480;-99.240;2023-10-19T04:37:06;77779.31;;;27.45
73673;BMP280;61972;19.480;-99.240;2023-10-19T04:39:33;77780.28;;;27.44
73673;BMP280;61972;19.480;-99.240;2023-10-19T04:42:00;77784.41;;;27.43
73673;BMP280;61972;19.480;-99.240;2023-10-19T04:44:26;77779.00;;;27.40
73673;BMP280;61972;19.480;-99.240;2023-10-19T04:46:53;77785.75;;;27.39
73673;BMP280;61972;19.480;-99.240;2023-10-19T04:49:19;77781.91;;;27.36
73673;BMP280;61972;19.480;-99.240;2023-10-19T04:51:45;77771.78;;;27.33
73673;BMP280;61972;19.480;-99.240;2023-10-19T04:54:11;77773.16;;;27.30
73673;BMP280;61972;19.480;-99.240;2023-10-19T04:56:37;77771.84;;;27.26
73673;BMP280;61972;19.480;-99.240;2023-10-19T04:59:04;77771.72;;;27.24
73673;BMP280;61972;19.480;-99.240;2023-10-19T05:01:30;77775.69;;;27.20
73673;BMP280;61972;19.480;-99.240;2023-10-19T05:03:59;77774.44;;;27.17
73673;BMP280;61972;19.480;-99.240;2023-10-19T05:06:26;77773.16;;;27.13
73673;BMP280;61972;19.480;-99.240;2023-10-19T05:08:52;77776.59;;;27.09
73673;BMP280;61972;19.480;-99.240;2023-10-19T05:11:18;77777.38;;;27.05
73673;BMP280;61972;19.480;-99.240;2023-10-19T05:13:44;77771.41;;;27.02
73673;BMP280;61972;19.480;-99.240;2023-10-19T05:16:10;77775.41;;;26.98
73673;BMP280;61972;19.480;-99.240;2023-10-19T05:18:37;77770.00;;;26.95
73673;BMP280;61972;19.480;-99.240;2023-10-19T05:21:04;77774.53;;;26.92
73673;BMP280;61972;19.480;-99.240;2023-10-19T05:23:30;77772.88;;;26.91
73673;BMP280;61972;19.480;-99.240;2023-10-19T05:26:05;77774.78;;;26.88
73673;BMP280;61972;19.480;-99.240;2023-10-19T05:28:32;77779.84;;;26.85
73673;BMP280;61972;19.480;-99.240;2023-10-19T05:30:58;77779.69;;;26.83
73673;BMP280;61972;19.480;-99.240;2023-10-19T05:33:27;77776.38;;;26.80
73673;BMP280;61972;19.480;-99.240;2023-10-19T05:35:53;77777.31;;;26.78
73673;BMP280;61972;19.480;-99.240;2023-10-19T05:38:19;77773.97;;;26.75
73673;BMP280;61972;19.480;-99.240;2023-10-19T05:40:47;77772.84;;;26.74
73673;BMP280;61972;19.480;-99.240;2023-10-19T05:43:15;77763.88;;;26.73
73673;BMP280;61972;19.480;-99.240;2023-10-19T05:45:41;77766.91;;;26.71
73673;BMP280;61972;19.480;-99.240;2023-10-19T05:48:08;77752.50;;;26.67
73673;BMP280;61972;19.480;-99.240;2023-10-19T05:50:35;77762.44;;;26.67
73673;BMP280;61972;19.480;-99.240;2023-10-19T05:53:04;77765.47;;;26.65
73673;BMP280;61972;19.480;-99.240;2023-10-19T05:55:31;77759.09;;;26.64
73673;BMP280;61972;19.480;-99.240;2023-10-19T05:57:57;77749.59;;;26.62
73673;BMP280;61972;19.480;-99.240;2023-10-19T06:00:24;77746.81;;;26.60
73673;BMP280;61972;19.480;-99.240;2023-10-19T06:02:52;77736.72;;;26.57
73673;BMP280;61972;19.480;-99.240;2023-10-19T06:05:19;77740.31;;;26.56
73673;BMP280;61972;19.480;-99.240;2023-10-19T06:07:46;77738.06;;;26.54
73673;BMP280;61972;19.480;-99.240;2023-10-19T06:10:14;77742.19;;;26.53
73673;BMP280;61972;19.480;-99.240;2023-10-19T06:12:48;77739.97;;;26.51
73673;BMP280;61972;19.480;-99.240;2023-10-19T06:15:16;77738.31;;;26.49
73673;BMP280;61972;19.480;-99.240;2023-10-19T06:17:43;77742.44;;;26.48
73673;BMP280;61972;19.480;-99.240;2023-10-19T06:20:11;77743.38;;;26.47
73673;BMP280;61972;19.480;-99.240;2023-10-19T06:22:54;77741.72;;;26.45
73673;BMP280;61972;19.480;-99.240;2023-10-19T06:25:23;77752.19;;;26.45
73673;BMP280;61972;19.480;-99.240;2023-10-19T06:27:50;77746.25;;;26.42
73673;BMP280;61972;19.480;-99.240;2023-10-19T06:30:17;77745.69;;;26.42
73673;BMP280;61972;19.480;-99.240;2023-10-19T06:32:48;77746.63;;;26.40
73673;BMP280;61972;19.480;-99.240;2023-10-19T06:35:17;77753.94;;;26.39
73673;BMP280;61972;19.480;-99.240;2023-10-19T06:37:43;77747.03;;;26.38
73673;BMP280;61972;19.480;-99.240;2023-10-19T06:40:12;77740.13;;;26.36
73673;BMP280;61972;19.480;-99.240;2023-10-19T06:42:46;77742.19;;;26.36
73673;BMP280;61972;19.480;-99.240;2023-10-19T06:45:16;77740.53;;;26.34
73673;BMP280;61972;19.480;-99.240;2023-10-19T06:47:48;77731.53;;;26.33
73673;BMP280;61972;19.480;-99.240;2023-10-19T06:50:17;77735.69;;;26.32
73673;BMP280;61972;19.480;-99.240;2023-10-19T06:52:44;77730.81;;;26.30
73673;BMP280;61972;19.480;-99.240;2023-10-19T06:55:12;77739.09;;;26.28
73673;BMP280;61972;19.480;-99.240;2023-10-19T06:57:53;77735.91;;;26.28
73673;BMP280;61972;19.480;-99.240;2023-10-19T07:00:22;77730.53;;;26.25
73673;BMP280;61972;19.480;-99.240;2023-10-19T07:02:49;77732.97;;;26.23
73673;BMP280;61972;19.480;-99.240;2023-10-19T07:05:17;77739.16;;;26.21
73673;BMP280;61972;19.480;-99.240;2023-10-19T07:07:45;77738.03;;;26.20
73673;BMP280;61972;19.480;-99.240;2023-10-19T07:10:12;77741.63;;;26.18
73673;BMP280;61972;19.480;-99.240;2023-10-19T07:12:42;77742.00;;;26.16
73673;BMP280;61972;19.480;-99.240;2023-10-19T07:15:09;77731.53;;;26.16
73673;BMP280;61972;19.480;-99.240;2023-10-19T07:17:43;77733.59;;;26.16
73673;BMP280;61972;19.480;-99.240;2023-10-19T07:20:10;77736.03;;;26.13
73673;BMP280;61972;19.480;-99.240;2023-10-19T07:23:06;77728.19;;;26.13
73673;BMP280;61972;19.480;-99.240;2023-10-19T07:25:45;77721.84;;;26.12
73673;BMP280;61972;19.480;-99.240;2023-10-19T07:28:16;77723.91;;;26.12
73673;BMP280;61972;19.480;-99.240;2023-10-19T07:30:43;77718.09;;;26.11
73673;BMP280;61972;19.480;-99.240;2023-10-19T07:33:11;77717.00;;;26.10
73673;BMP280;61972;19.480;-99.240;2023-10-19T07:35:43;77715.88;;;26.09
73673;BMP280;61972;19.480;-99.240;2023-10-19T07:38:13;77714.78;;;26.08
73673;BMP280;61972;19.480;-99.240;2023-10-19T07:40:39;77717.38;;;26.08
73673;BMP280;61972;19.480;-99.240;2023-10-19T07:43:05;77719.47;;;26.08
73673;BMP280;61972;19.480;-99.240;2023-10-19T07:45:32;77708.41;;;26.07
73673;BMP280;61972;19.480;-99.240;2023-10-19T07:48:00;77710.47;;;26.07
73673;BMP280;61972;19.480;-99.240;2023-10-19T07:50:46;77712.00;;;26.06
73673;BMP280;61972;19.480;-99.240;2023-10-19T07:53:12;77703.59;;;26.05
73673;BMP280;61972;19.480;-99.240;2023-10-19T07:55:38;77700.41;;;26.05
73673;BMP280;61972;19.480;-99.240;2023-10-19T07:58:05;77695.56;;;26.02
73673;BMP280;61972;19.480;-99.240;2023-10-19T08:00:34;77697.63;;;26.02
73673;BMP280;61972;19.480;-99.240;2023-10-19T08:03:01;77701.19;;;26.00
73673;BMP280;61972;19.480;-99.240;2023-10-19T08:05:28;77700.63;;;26.00
73673;BMP280;61972;19.480;-99.240;2023-10-19T08:07:54;77704.78;;;25.99
73673;BMP280;61972;19.480;-99.240;2023-10-19T08:10:22;77694.31;;;25.99
73673;BMP280;61972;19.480;-99.240;2023-10-19T08:12:49;77697.28;;;25.97
73673;BMP280;61972;19.480;-99.240;2023-10-19T08:15:16;77704.59;;;25.96
73673;BMP280;61972;19.480;-99.240;2023-10-19T08:17:44;77697.69;;;25.95
73673;BMP280;61972;19.480;-99.240;2023-10-19T08:20:12;77700.31;;;25.95
73673;BMP280;61972;19.480;-99.240;2023-10-19T08:22:43;77695.44;;;25.93
73673;BMP280;61972;19.480;-99.240;2023-10-19T08:25:12;77695.44;;;25.93
73673;BMP280;61972;19.480;-99.240;2023-10-19T08:27:47;77690.63;;;25.91
73673;BMP280;61972;19.480;-99.240;2023-10-19T08:30:20;77691.56;;;25.89
73673;BMP280;61972;19.480;-99.240;2023-10-19T08:32:47;77686.34;;;25.89
73673;BMP280;61972;19.480;-99.240;2023-10-19T08:35:19;77683.19;;;25.89
73673;BMP280;61972;19.480;-99.240;2023-10-19T08:37:55;77683.19;;;25.89
73673;BMP280;61972;19.480;-99.240;2023-10-19T08:40:25;77686.34;;;25.89
73673;BMP280;61972;19.480;-99.240;2023-10-19T08:42:52;77683.72;;;25.89
73673;BMP280;61972;19.480;-99.240;2023-10-19T08:45:21;77688.41;;;25.89
73673;BMP280;61972;19.480;-99.240;2023-10-19T08:47:55;77687.84;;;25.88
73673;BMP280;61972;19.480;-99.240;2023-10-19T08:50:28;77682.06;;;25.88
73673;BMP280;61972;19.480;-99.240;2023-10-19T08:52:57;77676.81;;;25.88
73673;BMP280;61972;19.480;-99.240;2023-10-19T08:55:23;77677.38;;;25.88
73673;BMP280;61972;19.480;-99.240;2023-10-19T08:57:51;77680.56;;;25.89
73673;BMP280;61972;19.480;-99.240;2023-10-19T09:00:18;77676.81;;;25.88
73673;BMP280;61972;19.480;-99.240;2023-10-19T09:02:47;77672.13;;;25.88
73673;BMP280;61972;19.480;-99.240;2023-10-19T09:05:14;77673.09;;;25.87
73673;BMP280;61972;19.480;-99.240;2023-10-19T09:07:55;77676.81;;;25.88
73673;BMP280;61972;19.480;-99.240;2023-10-19T09:13:02;77665.63;;;25.84
73673;BMP280;61972;19.480;-99.240;2023-10-19T09:15:29;77665.63;;;25.84
73673;BMP280;61972;19.480;-99.240;2023-10-19T09:18:24;77666.00;;;25.82
73673;BMP280;61972;19.480;-99.240;2023-10-19T09:20:53;77664.91;;;25.81
73673;BMP280;61972;19.480;-99.240;2023-10-19T09:23:20;77663.25;;;25.80
73673;BMP280;61972;19.480;-99.240;2023-10-19T09:25:50;77667.34;;;25.79
73673;BMP280;61972;19.480;-99.240;2023-10-19T09:28:20;77670.38;;;25.77
73673;BMP280;61972;19.480;-99.240;2023-10-19T09:30:48;77666.63;;;25.76
73673;BMP280;61972;19.480;-99.240;2023-10-19T09:33:15;77672.84;;;25.74
73673;BMP280;61972;19.480;-99.240;2023-10-19T09:35:46;77670.59;;;25.72
73673;BMP280;61972;19.480;-99.240;2023-10-19T09:38:18;77670.59;;;25.72
73673;BMP280;61972;19.480;-99.240;2023-10-19T09:40:55;77669.88;;;25.69
73673;BMP280;61972;19.480;-99.240;2023-10-19T09:43:51;77673.63;;;25.70
73673;BMP280;61972;19.480;-99.240;2023-10-19T09:46:27;77671.94;;;25.69
73673;BMP280;61972;19.480;-99.240;2023-10-19T09:48:55;77676.63;;;25.68
73673;BMP280;61972;19.480;-99.240;2023-10-19T09:51:22;77677.56;;;25.67
73673;BMP280;61972;19.480;-99.240;2023-10-19T09:53:57;77674.41;;;25.66
73673;BMP280;61972;19.480;-99.240;2023-10-19T09:56:30;77673.84;;;25.65
73673;BMP280;61972;19.480;-99.240;2023-10-19T09:59:23;77667.50;;;25.64
73673;BMP280;61972;19.480;-99.240;2023-10-19T10:02:15;77665.84;;;25.63
73673;BMP280;61972;19.480;-99.240;2023-10-19T10:04:44;77661.16;;;25.63
73673;BMP280;61972;19.480;-99.240;2023-10-19T10:07:14;77655.38;;;25.63
73673;BMP280;61972;19.480;-99.240;2023-10-19T10:09:43;77665.84;;;25.63
73673;BMP280;61972;19.480;-99.240;2023-10-19T10:12:23;77666.22;;;25.61
73673;BMP280;61972;19.480;-99.240;2023-10-19T10:15:01;77674.63;;;25.61
73673;BMP280;61972;19.480;-99.240;2023-10-19T10:17:30;77667.72;;;25.60
73673;BMP280;61972;19.480;-99.240;2023-10-19T10:22:40;77669.22;;;25.59
73673;BMP280;61972;19.480;-99.240;2023-10-19T10:25:07;77675.97;;;25.58
73673;BMP280;61972;19.480;-99.240;2023-10-19T10:27:50;77675.81;;;25.55
73673;BMP280;61972;19.480;-99.240;2023-10-19T10:30:16;77671.13;;;25.56
73673;BMP280;61972;19.480;-99.240;2023-10-19T10:32:46;77672.63;;;25.55
73673;BMP280;61972;19.480;-99.240;2023-10-19T10:38:07;77673.19;;;25.55
73673;BMP280;61972;19.480;-99.240;2023-10-19T10:40:49;77668.50;;;25.56
73673;BMP280;61972;19.480;-99.240;2023-10-19T10:43:17;77666.28;;;25.54
73673;BMP280;61972;19.480;-99.240;2023-10-19T10:45:43;77675.22;;;25.55
73673;BMP280;61972;19.480;-99.240;2023-10-19T10:48:17;77673.03;;;25.53
73673;BMP280;61972;19.480;-99.240;2023-10-19T10:50:44;77676.75;;;25.54
73673;BMP280;61972;19.480;-99.240;2023-10-19T10:53:12;77673.03;;;25.53
73673;BMP280;61972;19.480;-99.240;2023-10-19T10:55:39;77678.25;;;25.53
73673;BMP280;61972;19.480;-99.240;2023-10-19T10:58:05;77677.69;;;25.52
73673;BMP280;61972;19.480;-99.240;2023-10-19T11:00:31;77675.66;;;25.53
73673;BMP280;61972;19.480;-99.240;2023-10-19T11:03:04;77679.75;;;25.52
73673;BMP280;61972;19.480;-99.240;2023-10-19T11:05:33;77680.31;;;25.52
73673;BMP280;61972;19.480;-99.240;2023-10-19T11:08:11;77678.66;;;25.51
73673;BMP280;61972;19.480;-99.240;2023-10-19T11:10:45;77685.38;;;25.50
73673;BMP280;61972;19.480;-99.240;2023-10-19T11:13:14;77689.50;;;25.49
73673;BMP280;61972;19.480;-99.240;2023-10-19T11:15:51;77686.88;;;25.49
73673;BMP280;61972;19.480;-99.240;2023-10-19T11:18:35;77691.00;;;25.47
73673;BMP280;61972;19.480;-99.240;2023-10-19T11:21:06;77692.50;;;25.46
73673;BMP280;61972;19.480;-99.240;2023-10-19T11:26:09;77701.13;;;25.42
73673;BMP280;61972;19.480;-99.240;2023-10-19T11:31:12;77707.31;;;25.41
73673;BMP280;61972;19.480;-99.240;2023-10-19T11:33:40;77707.16;;;25.38
73673;BMP280;61972;19.480;-99.240;2023-10-19T11:36:08;77711.25;;;25.37
73673;BMP280;61972;19.480;-99.240;2023-10-19T11:38:34;77712.78;;;25.36
73673;BMP280;61972;19.480;-99.240;2023-10-19T11:41:01;77724.72;;;25.35
73673;BMP280;61972;19.480;-99.240;2023-10-19T11:43:29;77727.72;;;25.33
73673;BMP280;61972;19.480;-99.240;2023-10-19T11:45:55;77729.22;;;25.32
73673;BMP280;61972;19.480;-99.240;2023-10-19T11:48:22;77730.16;;;25.31
73673;BMP280;61972;19.480;-99.240;2023-10-19T11:50:48;77729.06;;;25.30
73673;BMP280;61972;19.480;-99.240;2023-10-19T11:53:14;77730.56;;;25.28
73673;BMP280;61972;19.480;-99.240;2023-10-19T11:55:40;77731.47;;;25.27
73673;BMP280;61972;19.480;-99.240;2023-10-19T11:58:08;77733.03;;;25.26
73673;BMP280;61972;19.480;-99.240;2023-10-19T12:00:37;77736.56;;;25.24
73673;BMP280;61972;19.480;-99.240;2023-10-19T12:03:06;77738.63;;;25.24
73673;BMP280;61972;19.480;-99.240;2023-10-19T12:05:33;77741.63;;;25.22
73673;BMP280;61972;19.480;-99.240;2023-10-19T12:08:03;77741.06;;;25.21
73673;BMP280;61972;19.480;-99.240;2023-10-19T12:10:29;77747.22;;;25.20
73673;BMP280;61972;19.480;-99.240;2023-10-19T12:13:04;77738.84;;;25.19
73673;BMP280;61972;19.480;-99.240;2023-10-19T12:15:34;77737.16;;;25.18
73673;BMP280;61972;19.480;-99.240;2023-10-19T12:18:01;77725.03;;;25.16
73673;BMP280;61972;19.480;-99.240;2023-10-19T12:20:31;77730.25;;;25.16
73673;BMP280;61972;19.480;-99.240;2023-10-19T12:22:57;77733.81;;;25.15
73673;BMP280;61972;19.480;-99.240;2023-10-19T12:25:25;77739.63;;;25.15
73673;BMP280;61972;19.480;-99.240;2023-10-19T12:28:00;77737.94;;;25.14
73673;BMP280;61972;19.480;-99.240;2023-10-19T12:30:30;77742.06;;;25.13
73673;BMP280;61972;19.480;-99.240;2023-10-19T12:33:05;77734.59;;;25.10
73673;BMP280;61972;19.480;-99.240;2023-10-19T12:35:38;77740.75;;;25.09
73673;BMP280;61972;19.480;-99.240;2023-10-19T12:38:23;77743.94;;;25.09
73673;BMP280;61972;19.480;-99.240;2023-10-19T12:40:50;77742.25;;;25.08
73673;BMP280;61972;19.480;-99.240;2023-10-19T12:43:17;77746.94;;;25.07
73673;BMP280;61972;19.480;-99.240;2023-10-19T12:45:48;77754.22;;;25.07
73673;BMP280;61972;19.480;-99.240;2023-10-19T12:48:19;77755.72;;;25.06
73673;BMP280;61972;19.480;-99.240;2023-10-19T12:50:46;77754.63;;;25.05
73673;BMP280;61972;19.480;-99.240;2023-10-19T12:53:13;77756.13;;;25.04
73673;BMP280;61972;19.480;-99.240;2023-10-19T12:55:40;77758.16;;;25.03
73673;BMP280;61972;19.480;-99.240;2023-10-19T12:58:09;77767.50;;;25.02
73673;BMP280;61972;19.480;-99.240;2023-10-19T13:00:36;77766.94;;;25.02
73673;BMP280;61972;19.480;-99.240;2023-10-19T13:03:07;77763.22;;;25.01
73673;BMP280;61972;19.480;-99.240;2023-10-19T13:05:35;77772.00;;;24.99
73673;BMP280;61972;19.480;-99.240;2023-10-19T13:08:02;77775.16;;;25.00
73673;BMP280;61972;19.480;-99.240;2023-10-19T13:10:29;77776.66;;;24.99
73673;BMP280;61972;19.480;-99.240;2023-10-19T13:13:02;77777.63;;;24.97
73673;BMP280;61972;19.480;-99.240;2023-10-19T13:15:35;77784.34;;;24.96
73673;BMP280;61972;19.480;-99.240;2023-10-19T13:18:02;77789.56;;;24.96
73673;BMP280;61972;19.480;-99.240;2023-10-19T13:20:29;77787.88;;;24.95
73673;BMP280;61972;19.480;-99.240;2023-10-19T13:23:03;77794.63;;;24.94
73673;BMP280;61972;19.480;-99.240;2023-10-19T13:25:33;77799.28;;;24.93
73673;BMP280;61972;19.480;-99.240;2023-10-19T13:28:13;77797.03;;;24.91
73673;BMP280;61972;19.480;-99.240;2023-10-19T13:30:41;77800.22;;;24.91
73673;BMP280;61972;19.480;-99.240;2023-10-19T13:33:08;77806.41;;;24.90
73673;BMP280;61972;19.480;-99.240;2023-10-19T13:35:40;77804.16;;;24.88
73673;BMP280;61972;19.480;-99.240;2023-10-19T13:38:07;77813.53;;;24.87
73673;BMP280;61972;19.480;-99.240;2023-10-19T13:40:37;77817.22;;;24.88
73673;BMP280;61972;19.480;-99.240;2023-10-19T13:43:05;77818.16;;;24.86
73673;BMP280;61972;19.480;-99.240;2023-10-19T13:45:36;77818.75;;;24.87
73673;BMP280;61972;19.480;-99.240;2023-10-19T13:48:04;77823.41;;;24.86
73673;BMP280;61972;19.480;-99.240;2023-10-19T13:50:32;77826.94;;;24.85
73673;BMP280;61972;19.480;-99.240;2023-10-19T13:52:59;77816.50;;;24.85
73673;BMP280;61972;19.480;-99.240;2023-10-19T13:55:26;77825.47;;;24.86
73673;BMP280;61972;19.480;-99.240;2023-10-19T13:57:54;77828.44;;;24.84
73673;BMP280;61972;19.480;-99.240;2023-10-19T14:00:22;77825.81;;;24.84
73673;BMP280;61972;19.480;-99.240;2023-10-19T14:03:17;77831.06;;;24.84
73673;BMP280;61972;19.480;-99.240;2023-10-19T14:05:46;77829.94;;;24.83
73673;BMP280;61972;19.480;-99.240;2023-10-19T14:08:17;77835.19;;;24.83
73673;BMP280;61972;19.480;-99.240;2023-10-19T14:10:44;77839.28;;;24.82
73673;BMP280;61972;19.480;-99.240;2023-10-19T14:13:11;77839.28;;;24.82